createdAt,value
2023-03-06T00:02:25.180Z,62.66
2023-03-06T00:07:27.414Z,61.61
2023-03-06T00:12:29.662Z,62.38
2023-03-06T00:17:31.867Z,62.14
2023-03-06T00:22:34.161Z,63.22
2023-03-06T00:27:36.512Z,63.43
2023-03-06T00:32:38.754Z,63.49
2023-03-06T00:37:41.766Z,64.70
2023-03-06T00:42:44.274Z,65.10
2023-03-06T00:47:46.742Z,64.28
2023-03-06T00:52:50.211Z,62.93
2023-03-06T00:57:52.338Z,62.48
2023-03-06T01:02:56.094Z,63.56
2023-03-06T01:07:58.331Z,63.30
2023-03-06T01:13:02.097Z,63.69
2023-03-06T01:18:04.295Z,64.29
2023-03-06T01:23:06.519Z,65.24
2023-03-06T01:28:08.655Z,64.17
2023-03-06T01:33:11.502Z,65.47
2023-03-06T01:38:14.055Z,64.32
2023-03-06T01:43:29.223Z,65.66
2023-03-06T01:48:31.741Z,65.04
2023-03-06T01:53:33.957Z,66.09
2023-03-06T01:58:36.609Z,65.70
2023-03-06T02:03:40.424Z,66.15
2023-03-06T02:08:42.687Z,64.34
2023-03-06T02:13:46.648Z,64.78
2023-03-06T02:18:50.194Z,65.73
2023-03-06T02:24:33.214Z,64.63
2023-03-06T02:29:35.799Z,63.70
2023-03-06T02:34:38.922Z,62.78
2023-03-06T02:39:48.553Z,63.28
2023-03-06T02:44:53.239Z,64.50
2023-03-06T02:49:55.667Z,64.32
2023-03-06T02:54:58.190Z,64.83
2023-03-06T03:00:00.449Z,65.26
2023-03-06T03:05:03.129Z,66.17
2023-03-06T03:10:06.714Z,65.12
2023-03-06T03:15:10.809Z,65.09
2023-03-06T03:20:17.802Z,64.44
2023-03-06T03:25:21.884Z,66.27
2023-03-06T03:30:24.120Z,67.39
2023-03-06T03:35:26.660Z,66.84
2023-03-06T03:40:29.113Z,66.53
2023-03-06T03:45:34.364Z,68.57
2023-03-06T03:50:37.116Z,66.52
2023-03-06T03:55:39.963Z,67.57
2023-03-06T04:00:42.396Z,68.62
2023-03-06T04:05:49.331Z,69.09
2023-03-06T04:10:53.778Z,67.86
2023-03-06T04:15:57.024Z,67.03
2023-03-06T04:20:59.542Z,65.81
2023-03-06T04:26:02.676Z,66.28
2023-03-06T04:31:05.494Z,67.36
2023-03-06T04:36:08.230Z,67.16
2023-03-06T04:41:10.581Z,67.00
2023-03-06T04:46:12.913Z,66.48
2023-03-06T04:51:15.355Z,66.23
2023-03-06T04:56:17.691Z,66.93
2023-03-06T05:01:20.001Z,66.98
2023-03-06T05:06:22.158Z,67.14
2023-03-06T05:11:24.472Z,66.50
2023-03-06T05:16:27.036Z,66.62
2023-03-06T05:21:29.315Z,65.85
2023-03-06T05:26:31.670Z,67.16
2023-03-06T05:31:33.866Z,67.93
2023-03-06T05:36:36.430Z,67.07
2023-03-06T05:41:38.730Z,67.90
2023-03-06T05:46:41.140Z,67.72
2023-03-06T05:51:43.490Z,66.52
2023-03-06T05:56:45.740Z,67.16
2023-03-06T06:01:47.983Z,66.86
2023-03-06T06:06:59.781Z,66.46
2023-03-06T06:12:03.915Z,66.07
2023-03-06T06:17:06.467Z,66.35
2023-03-06T06:22:08.957Z,65.69
2023-03-06T06:27:11.265Z,65.05
2023-03-06T06:32:13.464Z,65.54
2023-03-06T06:37:16.310Z,65.73
2023-03-06T06:42:32.970Z,65.59
2023-03-06T06:47:41.527Z,65.67
2023-03-06T06:52:44.005Z,64.82
2023-03-06T06:57:46.293Z,65.37
2023-03-06T07:02:51.407Z,65.08
2023-03-06T07:07:53.747Z,64.69
2023-03-06T07:12:56.559Z,64.29
2023-03-06T07:17:58.843Z,63.57
2023-03-06T07:23:01.110Z,63.28
2023-03-06T07:28:03.318Z,64.03
2023-03-06T07:33:05.531Z,63.65
2023-03-06T07:38:07.800Z,64.11
2023-03-06T07:43:19.106Z,63.29
2023-03-06T07:48:30.918Z,63.90
2023-03-06T07:53:34.059Z,64.64
2023-03-06T07:58:38.182Z,64.10
2023-03-06T08:03:40.525Z,64.18
2023-03-06T08:08:45.295Z,64.65
2023-03-06T08:13:48.835Z,64.48
2023-03-06T08:18:51.490Z,64.81
2023-03-06T08:23:54.225Z,64.10
2023-03-06T08:28:59.688Z,64.16
2023-03-06T08:34:06.936Z,63.97
2023-03-06T08:39:09.874Z,64.15
2023-03-06T08:44:12.841Z,63.19
2023-03-06T08:49:15.229Z,62.95
2023-03-06T08:54:17.538Z,63.02
2023-03-06T08:59:19.800Z,61.94
2023-03-06T09:04:22.075Z,61.88
2023-03-06T09:09:24.247Z,61.11
2023-03-06T09:14:26.659Z,60.20
2023-03-06T09:19:28.976Z,60.22
2023-03-06T09:24:31.345Z,60.15
2023-03-06T09:29:33.630Z,59.92
2023-03-06T09:34:36.651Z,59.17
2023-03-06T09:39:38.982Z,59.35
2023-03-06T09:44:42.996Z,58.89
2023-03-06T09:49:51.674Z,59.54
2023-03-06T09:55:11.752Z,60.59
2023-03-06T10:00:19.417Z,60.27
2023-03-06T10:05:27.759Z,61.38
2023-03-06T10:10:47.296Z,60.44
2023-03-06T10:15:50.632Z,61.42
2023-03-06T10:21:04.705Z,61.09
2023-03-06T10:26:25.881Z,60.84
2023-03-06T10:31:29.270Z,61.09
2023-03-06T10:36:31.653Z,60.20
2023-03-06T10:41:36.720Z,60.04
2023-03-06T10:46:48.930Z,59.57
2023-03-06T10:52:09.977Z,60.21
2023-03-06T10:57:28.750Z,60.55
2023-03-06T11:02:38.699Z,59.58
2023-03-06T11:08:01.451Z,59.64
2023-03-06T11:13:23.775Z,58.74
2023-03-06T11:18:42.977Z,58.72
2023-03-06T11:23:50.095Z,58.57
2023-03-06T11:30:01.783Z,57.98
2023-03-06T11:35:20.402Z,56.82
2023-03-06T11:40:43.229Z,56.13
2023-03-06T11:46:27.770Z,55.43
2023-03-06T11:51:41.968Z,54.41
2023-03-06T11:57:05.247Z,53.57
2023-03-06T12:02:39.747Z,53.75
2023-03-06T12:07:57.034Z,53.50
2023-03-06T12:18:48.099Z,53.07
2023-03-06T12:24:37.422Z,51.73
2023-03-06T12:30:29.197Z,51.17
2023-03-06T12:36:00.592Z,51.06
2023-03-06T12:41:27.774Z,50.83
2023-03-06T12:46:30.591Z,50.60
2023-03-06T12:51:34.226Z,51.95
2023-03-06T12:56:36.700Z,51.91
2023-03-06T13:02:16.074Z,52.35
2023-03-06T13:07:42.444Z,52.76
2023-03-06T13:13:10.050Z,50.10
2023-03-06T13:18:24.410Z,51.05
2023-03-06T13:23:32.788Z,50.45
2023-03-06T13:28:49.917Z,49.85
2023-03-06T13:34:02.197Z,49.89
2023-03-06T13:39:10.136Z,51.07
2023-03-06T13:44:24.670Z,50.86
2023-03-06T13:49:28.116Z,51.30
2023-03-06T13:55:06.248Z,51.57
2023-03-06T14:00:32.068Z,50.65
2023-03-06T14:05:50.245Z,48.32
2023-03-06T14:11:07.139Z,47.85
2023-03-06T14:16:24.910Z,48.55
2023-03-06T14:21:56.042Z,48.67
2023-03-06T14:26:58.379Z,48.26
2023-03-06T14:32:02.751Z,48.82
2023-03-06T14:37:07.984Z,47.79
2023-03-06T14:42:29.204Z,47.92
2023-03-06T14:47:36.850Z,48.64
2023-03-06T14:52:39.293Z,48.23
2023-03-06T14:57:41.631Z,48.63
2023-03-06T15:02:45.611Z,48.89
2023-03-06T15:07:48.405Z,50.94
2023-03-06T15:12:50.800Z,49.66
2023-03-06T15:17:53.598Z,50.92
2023-03-06T15:22:55.853Z,50.12
2023-03-06T15:28:04.833Z,50.40
2023-03-06T15:33:24.410Z,50.91
2023-03-06T15:38:34.681Z,51.08
2023-03-06T15:43:40.878Z,51.61
2023-03-06T15:49:03.406Z,52.05
2023-03-06T15:54:12.400Z,51.67
2023-03-06T15:59:41.938Z,51.77
2023-03-06T16:04:45.145Z,51.41
2023-03-06T16:09:48.648Z,52.31
2023-03-06T16:14:50.827Z,51.76
2023-03-06T16:19:53.161Z,52.21
2023-03-06T16:24:55.339Z,52.24
2023-03-06T16:29:57.440Z,52.15
2023-03-06T16:34:59.550Z,51.68
2023-03-06T16:40:01.798Z,51.65
2023-03-06T16:45:04.443Z,52.23
2023-03-06T16:50:09.904Z,51.96
2023-03-06T16:55:12.015Z,53.06
2023-03-06T17:00:16.026Z,52.89
2023-03-06T17:05:19.130Z,53.05
2023-03-06T17:10:26.179Z,52.57
2023-03-06T17:15:28.368Z,52.60
2023-03-06T17:20:30.687Z,53.51
2023-03-06T17:25:35.147Z,53.64
2023-03-06T17:30:37.652Z,54.63
2023-03-06T17:35:39.828Z,53.83
2023-03-06T17:40:41.989Z,54.38
2023-03-06T17:45:45.538Z,54.36
2023-03-06T17:50:55.419Z,54.18
2023-03-06T17:56:00.815Z,54.35
2023-03-06T18:01:22.418Z,53.61
2023-03-06T18:06:27.651Z,54.37
2023-03-06T18:11:30.648Z,55.00
2023-03-06T18:16:34.286Z,54.48
2023-03-06T18:21:36.670Z,54.97
2023-03-06T18:26:42.351Z,55.18
2023-03-06T18:31:46.019Z,55.35
2023-03-06T18:36:53.370Z,55.13
2023-03-06T18:41:56.617Z,54.61
2023-03-06T18:46:58.786Z,55.35
2023-03-06T18:52:00.927Z,56.77
2023-03-06T18:57:03.103Z,56.76
2023-03-06T19:02:05.461Z,56.89
2023-03-06T19:07:07.759Z,57.34
2023-03-06T19:12:10.030Z,56.52
2023-03-06T19:17:12.553Z,57.05
2023-03-06T19:22:14.850Z,56.80
2023-03-06T19:27:17.103Z,57.34
2023-03-06T19:32:19.474Z,57.07
2023-03-06T19:37:21.818Z,57.92
2023-03-06T19:42:23.954Z,56.83
2023-03-06T19:47:26.183Z,57.08
2023-03-06T19:52:28.354Z,57.54
2023-03-06T19:57:30.620Z,57.87
2023-03-06T20:02:32.855Z,57.71
2023-03-06T20:07:36.124Z,57.99
2023-03-06T20:12:38.254Z,57.39
2023-03-06T20:17:40.804Z,58.19
2023-03-06T20:22:43.320Z,58.43
2023-03-06T20:27:45.441Z,57.67
2023-03-06T20:32:47.712Z,57.55
2023-03-06T20:37:49.852Z,59.03
2023-03-06T20:42:51.962Z,59.09
2023-03-06T20:47:56.194Z,59.72
2023-03-06T20:52:58.906Z,60.16
2023-03-06T20:58:01.006Z,60.14
2023-03-06T21:03:03.302Z,60.03
2023-03-06T21:08:05.798Z,59.71
2023-03-06T21:13:08.136Z,60.23
2023-03-06T21:18:11.378Z,60.10
2023-03-06T21:23:13.580Z,60.33
2023-03-06T21:28:17.994Z,60.49
2023-03-06T21:33:20.223Z,60.78
2023-03-06T21:38:22.492Z,60.60
2023-03-06T21:43:24.661Z,60.56
2023-03-06T21:48:26.773Z,60.37
2023-03-06T21:53:28.860Z,61.65
2023-03-06T21:58:31.560Z,60.85
2023-03-06T22:03:33.710Z,60.58
2023-03-06T22:08:36.005Z,61.12
2023-03-06T22:13:39.003Z,61.10
2023-03-06T22:18:45.143Z,61.48
2023-03-06T22:23:52.548Z,61.03
2023-03-06T22:28:54.842Z,61.08
2023-03-06T22:34:01.733Z,61.03
2023-03-06T22:39:04.588Z,61.44
2023-03-06T22:44:06.991Z,61.77
2023-03-06T22:49:12.018Z,60.87
2023-03-06T22:54:14.247Z,61.68
2023-03-06T22:59:16.477Z,60.67
2023-03-06T23:04:18.637Z,61.17
2023-03-06T23:09:23.207Z,61.52
2023-03-06T23:14:46.716Z,61.80
2023-03-06T23:20:10.171Z,61.56
2023-03-06T23:25:30.844Z,61.02
2023-03-06T23:30:33.077Z,61.77
2023-03-06T23:35:37.765Z,62.49
2023-03-06T23:40:40.454Z,62.70
2023-03-06T23:45:51.348Z,61.77
2023-03-06T23:50:54.266Z,62.77
2023-03-06T23:55:56.438Z,62.55
